AVA9346 SKBO-SKCC
Flight info
| Callsign | AVA9346 |
|---|---|
| Flight time | 0h 41m |
| Altitude | 29000 |
| Route | OSUSU4R OSUSU DCT BUV DCT ESNUT ESNUT2A |
| Aircraft | A320/M-SDE3FGHIRWY/LB1 |
Departure
| Time | 2026-04-25 02:06 |
|---|---|
| Airport | El Dorado International Airport (SKBO) |
Arrival
| Time | 2026-04-25 02:48 |
|---|---|
| Airport | Camilo Daza International Airport (SKCC) |
| Time | Latitude | Longitude | Altitude | Speed | Heading |
|---|---|---|---|---|---|
| 2026-04-25 01:04 | 4.69675 | -74.14572 | 8370 ft | 0 kts | 217° |
| 2026-04-25 01:28 | 4.69678 | -74.14569 | 8370 ft | 2 kts | 213° |
| 2026-04-25 01:29 | 4.69692 | -74.14559 | 8370 ft | 2 kts | 217° |
| 2026-04-25 01:29 | 4.69705 | -74.14549 | 8370 ft | 2 kts | 225° |
| 2026-04-25 01:29 | 4.69714 | -74.14535 | 8370 ft | 2 kts | 288° |
| 2026-04-25 01:29 | 4.69706 | -74.14521 | 8370 ft | 2 kts | 304° |
| 2026-04-25 01:30 | 4.69699 | -74.14512 | 8370 ft | 2 kts | 306° |
| 2026-04-25 01:30 | 4.69686 | -74.14495 | 8370 ft | 2 kts | 308° |
| 2026-04-25 01:30 | 4.69676 | -74.14482 | 8370 ft | 2 kts | 307° |
| 2026-04-25 01:30 | 4.69669 | -74.14473 | 8370 ft | 2 kts | 307° |
| 2026-04-25 01:31 | 4.69662 | -74.14463 | 8370 ft | 1 kts | 307° |
| 2026-04-25 01:31 | 4.69661 | -74.14462 | 8370 ft | 0 kts | 307° |
| 2026-04-25 01:41 | 4.69662 | -74.14464 | 8370 ft | 2 kts | 307° |
| 2026-04-25 01:41 | 4.69678 | -74.14485 | 8370 ft | 6 kts | 307° |
| 2026-04-25 01:41 | 4.69714 | -74.14533 | 8370 ft | 11 kts | 307° |
| 2026-04-25 01:41 | 4.69764 | -74.14599 | 8370 ft | 12 kts | 307° |
| 2026-04-25 01:42 | 4.69812 | -74.14661 | 8370 ft | 11 kts | 308° |
| 2026-04-25 01:42 | 4.69858 | -74.14720 | 8370 ft | 10 kts | 306° |
| 2026-04-25 01:42 | 4.69893 | -74.14769 | 8370 ft | 7 kts | 306° |
| 2026-04-25 01:42 | 4.69927 | -74.14786 | 8370 ft | 6 kts | 9° |
| 2026-04-25 01:43 | 4.69973 | -74.14756 | 8371 ft | 10 kts | 38° |
| 2026-04-25 01:43 | 4.70033 | -74.14708 | 8370 ft | 13 kts | 37° |
| 2026-04-25 01:43 | 4.70110 | -74.14650 | 8370 ft | 15 kts | 38° |
| 2026-04-25 01:43 | 4.70191 | -74.14590 | 8370 ft | 13 kts | 36° |
| 2026-04-25 01:44 | 4.70257 | -74.14540 | 8370 ft | 10 kts | 38° |
| 2026-04-25 01:44 | 4.70310 | -74.14499 | 8370 ft | 9 kts | 37° |
| 2026-04-25 01:44 | 4.70360 | -74.14461 | 8370 ft | 9 kts | 36° |
| 2026-04-25 01:44 | 4.70411 | -74.14422 | 8370 ft | 10 kts | 38° |
| 2026-04-25 01:45 | 4.70473 | -74.14399 | 8370 ft | 10 kts | 340° |
| 2026-04-25 01:45 | 4.70519 | -74.14452 | 8370 ft | 11 kts | 307° |
| 2026-04-25 01:45 | 4.70566 | -74.14514 | 8370 ft | 11 kts | 307° |
| 2026-04-25 01:45 | 4.70616 | -74.14578 | 8371 ft | 12 kts | 308° |
| 2026-04-25 01:46 | 4.70668 | -74.14646 | 8371 ft | 13 kts | 307° |
| 2026-04-25 01:46 | 4.70722 | -74.14720 | 8370 ft | 13 kts | 307° |
| 2026-04-25 01:46 | 4.70777 | -74.14793 | 8370 ft | 12 kts | 307° |
| 2026-04-25 01:46 | 4.70822 | -74.14853 | 8370 ft | 9 kts | 307° |
| 2026-04-25 01:47 | 4.70856 | -74.14897 | 8370 ft | 7 kts | 307° |
| 2026-04-25 01:47 | 4.70890 | -74.14943 | 8371 ft | 9 kts | 307° |
| 2026-04-25 01:47 | 4.70933 | -74.14999 | 8370 ft | 11 kts | 307° |
| 2026-04-25 01:47 | 4.70978 | -74.15059 | 8370 ft | 10 kts | 307° |
| 2026-04-25 01:48 | 4.71012 | -74.15105 | 8370 ft | 7 kts | 307° |
| 2026-04-25 01:48 | 4.71044 | -74.15147 | 8370 ft | 8 kts | 307° |
| 2026-04-25 01:48 | 4.71080 | -74.15194 | 8370 ft | 9 kts | 308° |
| 2026-04-25 01:48 | 4.71117 | -74.15243 | 8371 ft | 9 kts | 306° |
| 2026-04-25 01:49 | 4.71160 | -74.15302 | 8371 ft | 12 kts | 307° |
| 2026-04-25 01:49 | 4.71209 | -74.15364 | 8371 ft | 10 kts | 318° |
| 2026-04-25 01:49 | 4.71260 | -74.15356 | 8371 ft | 6 kts | 39° |
| 2026-04-25 01:49 | 4.71276 | -74.15339 | 8371 ft | 0 kts | 53° |
| 2026-04-25 02:04 | 4.71290 | -74.15317 | 8371 ft | 9 kts | 64° |
| 2026-04-25 02:05 | 4.71307 | -74.15235 | 8370 ft | 12 kts | 80° |
| 2026-04-25 02:05 | 4.71325 | -74.15187 | 8370 ft | 3 kts | 125° |
| 2026-04-25 02:05 | 4.71317 | -74.15178 | 8370 ft | 2 kts | 128° |
| 2026-04-25 02:05 | 4.71217 | -74.15045 | 8369 ft | 58 kts | 127° |
| 2026-04-25 02:06 | 4.70834 | -74.14541 | 8370 ft | 121 kts | 127° |
| 2026-04-25 02:06 | 4.70216 | -74.13723 | 8368 ft | 171 kts | 127° |
| 2026-04-25 02:06 | 4.69436 | -74.12688 | 8708 ft | 191 kts | 126° |
| 2026-04-25 02:06 | 4.68734 | -74.11575 | 9517 ft | 188 kts | 103° |
| 2026-04-25 02:07 | 4.68847 | -74.10286 | 9991 ft | 196 kts | 60° |
| 2026-04-25 02:07 | 4.69879 | -74.09364 | 10182 ft | 215 kts | 21° |
| 2026-04-25 02:07 | 4.71369 | -74.08859 | 10344 ft | 236 kts | 17° |
| 2026-04-25 02:07 | 4.72971 | -74.08347 | 10739 ft | 245 kts | 17° |
| 2026-04-25 02:08 | 4.74609 | -74.07817 | 11396 ft | 248 kts | 17° |
| 2026-04-25 02:08 | 4.76256 | -74.07282 | 12101 ft | 250 kts | 17° |
| 2026-04-25 02:08 | 4.77905 | -74.06742 | 12836 ft | 250 kts | 17° |
| 2026-04-25 02:08 | 4.79586 | -74.06187 | 13320 ft | 263 kts | 18° |
| 2026-04-25 02:09 | 4.81397 | -74.05583 | 13532 ft | 286 kts | 18° |
| 2026-04-25 02:09 | 4.83361 | -74.04925 | 13705 ft | 309 kts | 18° |
| 2026-04-25 02:09 | 4.85446 | -74.04225 | 13858 ft | 332 kts | 18° |
| 2026-04-25 02:09 | 4.87702 | -74.03463 | 14118 ft | 349 kts | 18° |
| 2026-04-25 02:10 | 4.89975 | -74.02692 | 14604 ft | 355 kts | 18° |
| 2026-04-25 02:10 | 4.92333 | -74.01889 | 15177 ft | 359 kts | 18° |
| 2026-04-25 02:10 | 4.93935 | -74.01343 | 15570 ft | 361 kts | 18° |
| 2026-04-25 02:11 | 4.94586 | -74.01120 | 15737 ft | 360 kts | 20° |
| 2026-04-25 02:11 | 4.96898 | -74.00116 | 16296 ft | 365 kts | 21° |
| 2026-04-25 02:11 | 4.99288 | -73.99234 | 16806 ft | 368 kts | 18° |
| 2026-04-25 02:11 | 5.01737 | -73.98455 | 16981 ft | 369 kts | 15° |
| 2026-04-25 02:12 | 5.04190 | -73.97814 | 17040 ft | 370 kts | 12° |
| 2026-04-25 02:12 | 5.06711 | -73.97256 | 17610 ft | 372 kts | 11° |
| 2026-04-25 02:12 | 5.09257 | -73.96712 | 18206 ft | 375 kts | 11° |
| 2026-04-25 02:12 | 5.11820 | -73.96145 | 18736 ft | 378 kts | 12° |
| 2026-04-25 02:13 | 5.14396 | -73.95545 | 19208 ft | 382 kts | 12° |
| 2026-04-25 02:13 | 5.16991 | -73.94918 | 19693 ft | 384 kts | 13° |
| 2026-04-25 02:13 | 5.19595 | -73.94272 | 20163 ft | 387 kts | 13° |
| 2026-04-25 02:13 | 5.22221 | -73.93612 | 20617 ft | 390 kts | 13° |
| 2026-04-25 02:14 | 5.24862 | -73.92943 | 21101 ft | 393 kts | 13° |
| 2026-04-25 02:14 | 5.27526 | -73.92269 | 21540 ft | 396 kts | 13° |
| 2026-04-25 02:14 | 5.30210 | -73.91595 | 21984 ft | 399 kts | 13° |
| 2026-04-25 02:14 | 5.32920 | -73.90920 | 22414 ft | 402 kts | 12° |
| 2026-04-25 02:15 | 5.35614 | -73.90253 | 22844 ft | 405 kts | 13° |
| 2026-04-25 02:15 | 5.38354 | -73.89571 | 23274 ft | 407 kts | 13° |
| 2026-04-25 02:15 | 5.41115 | -73.88882 | 23710 ft | 410 kts | 13° |
| 2026-04-25 02:15 | 5.43898 | -73.88188 | 24059 ft | 413 kts | 13° |
| 2026-04-25 02:16 | 5.46706 | -73.87490 | 24226 ft | 415 kts | 13° |
| 2026-04-25 02:16 | 5.49515 | -73.86790 | 24435 ft | 417 kts | 13° |
| 2026-04-25 02:16 | 5.52327 | -73.86035 | 24766 ft | 420 kts | 19° |
| 2026-04-25 02:16 | 5.54984 | -73.84889 | 25099 ft | 423 kts | 28° |
| 2026-04-25 02:17 | 5.57566 | -73.83447 | 25396 ft | 426 kts | 29° |
| 2026-04-25 02:17 | 5.60157 | -73.81995 | 25743 ft | 428 kts | 29° |
| 2026-04-25 02:17 | 5.62762 | -73.80535 | 26092 ft | 430 kts | 30° |
| 2026-04-25 02:17 | 5.65390 | -73.79063 | 26467 ft | 432 kts | 30° |
| 2026-04-25 02:18 | 5.68022 | -73.77592 | 26814 ft | 434 kts | 30° |
| 2026-04-25 02:18 | 5.70677 | -73.76109 | 27129 ft | 437 kts | 30° |
| 2026-04-25 02:18 | 5.73340 | -73.74621 | 27459 ft | 439 kts | 30° |
| 2026-04-25 02:18 | 5.76015 | -73.73128 | 27786 ft | 441 kts | 30° |
| 2026-04-25 02:19 | 5.78702 | -73.71623 | 28110 ft | 444 kts | 30° |
| 2026-04-25 02:19 | 5.81406 | -73.70107 | 28427 ft | 446 kts | 30° |
| 2026-04-25 02:19 | 5.84122 | -73.68586 | 28744 ft | 448 kts | 30° |
| 2026-04-25 02:19 | 5.86856 | -73.67054 | 28995 ft | 451 kts | 30° |
| 2026-04-25 02:20 | 5.89612 | -73.65512 | 29178 ft | 453 kts | 30° |
| 2026-04-25 02:20 | 5.92329 | -73.63995 | 29228 ft | 438 kts | 30° |
| 2026-04-25 02:20 | 5.94921 | -73.62550 | 29233 ft | 427 kts | 30° |
| 2026-04-25 02:21 | 6.00074 | -73.59669 | 29190 ft | 422 kts | 30° |
| 2026-04-25 02:21 | 6.05195 | -73.56789 | 29193 ft | 422 kts | 31° |
| 2026-04-25 02:22 | 6.10316 | -73.53915 | 29191 ft | 422 kts | 30° |
| 2026-04-25 02:22 | 6.15444 | -73.51046 | 29164 ft | 422 kts | 30° |
| 2026-04-25 02:23 | 6.20567 | -73.48175 | 29167 ft | 421 kts | 30° |
| 2026-04-25 02:23 | 6.25697 | -73.45299 | 29151 ft | 422 kts | 30° |
| 2026-04-25 02:24 | 6.30822 | -73.42421 | 29122 ft | 422 kts | 30° |
| 2026-04-25 02:24 | 6.35953 | -73.39550 | 29119 ft | 422 kts | 30° |
| 2026-04-25 02:25 | 6.41082 | -73.36676 | 29133 ft | 422 kts | 30° |
| 2026-04-25 02:25 | 6.46191 | -73.33815 | 29113 ft | 423 kts | 30° |
| 2026-04-25 02:26 | 6.51326 | -73.30928 | 29115 ft | 423 kts | 30° |
| 2026-04-25 02:26 | 6.56469 | -73.28033 | 29090 ft | 423 kts | 30° |
| 2026-04-25 02:27 | 6.60776 | -73.25614 | 29095 ft | 423 kts | 30° |
| 2026-04-25 02:27 | 6.65880 | -73.22759 | 29112 ft | 422 kts | 30° |
| 2026-04-25 02:28 | 6.71014 | -73.19886 | 29100 ft | 422 kts | 30° |
| 2026-04-25 02:28 | 6.76144 | -73.17004 | 29095 ft | 422 kts | 30° |
| 2026-04-25 02:29 | 6.81274 | -73.14118 | 29061 ft | 421 kts | 30° |
| 2026-04-25 02:29 | 6.83814 | -73.12687 | 28801 ft | 413 kts | 30° |
| 2026-04-25 02:29 | 6.86283 | -73.11295 | 28532 ft | 410 kts | 30° |
| 2026-04-25 02:29 | 6.88764 | -73.09897 | 28277 ft | 407 kts | 30° |
| 2026-04-25 02:30 | 6.91229 | -73.08513 | 28054 ft | 405 kts | 30° |
| 2026-04-25 02:30 | 6.93686 | -73.07133 | 27822 ft | 403 kts | 30° |
| 2026-04-25 02:30 | 6.96130 | -73.05760 | 27574 ft | 401 kts | 30° |
| 2026-04-25 02:30 | 6.98563 | -73.04392 | 27317 ft | 399 kts | 30° |
| 2026-04-25 02:31 | 7.00983 | -73.03032 | 27078 ft | 398 kts | 30° |
| 2026-04-25 02:31 | 7.03387 | -73.01674 | 26838 ft | 396 kts | 30° |
| 2026-04-25 02:31 | 7.05775 | -73.00305 | 26585 ft | 394 kts | 30° |
| 2026-04-25 02:31 | 7.08185 | -72.98935 | 25853 ft | 400 kts | 30° |
| 2026-04-25 02:32 | 7.10599 | -72.97575 | 25417 ft | 396 kts | 29° |
| 2026-04-25 02:32 | 7.12998 | -72.96231 | 24943 ft | 394 kts | 29° |
| 2026-04-25 02:32 | 7.15391 | -72.94892 | 24481 ft | 393 kts | 29° |
| 2026-04-25 02:32 | 7.17774 | -72.93557 | 23987 ft | 392 kts | 29° |
| 2026-04-25 02:33 | 7.20154 | -72.92223 | 23432 ft | 391 kts | 29° |
| 2026-04-25 02:33 | 7.22524 | -72.90893 | 22917 ft | 388 kts | 29° |
| 2026-04-25 02:33 | 7.24876 | -72.89569 | 22427 ft | 386 kts | 29° |
| 2026-04-25 02:33 | 7.27210 | -72.88255 | 21934 ft | 384 kts | 28° |
| 2026-04-25 02:34 | 7.29535 | -72.86947 | 21447 ft | 381 kts | 28° |
| 2026-04-25 02:34 | 7.31847 | -72.85645 | 20984 ft | 380 kts | 28° |
| 2026-04-25 02:34 | 7.34150 | -72.84348 | 20509 ft | 378 kts | 28° |
| 2026-04-25 02:34 | 7.36409 | -72.83077 | 20044 ft | 377 kts | 28° |
| 2026-04-25 02:35 | 7.38689 | -72.81793 | 19647 ft | 372 kts | 28° |
| 2026-04-25 02:35 | 7.40921 | -72.80533 | 19120 ft | 362 kts | 28° |
| 2026-04-25 02:35 | 7.43078 | -72.79318 | 18677 ft | 349 kts | 28° |
| 2026-04-25 02:35 | 7.45169 | -72.78141 | 18182 ft | 339 kts | 28° |
| 2026-04-25 02:36 | 7.47193 | -72.77000 | 17770 ft | 328 kts | 28° |
| 2026-04-25 02:36 | 7.49149 | -72.75902 | 17385 ft | 316 kts | 27° |
| 2026-04-25 02:36 | 7.51146 | -72.75054 | 16980 ft | 312 kts | 15° |
| 2026-04-25 02:36 | 7.53328 | -72.74549 | 16316 ft | 328 kts | 11° |
| 2026-04-25 02:37 | 7.55602 | -72.74089 | 15669 ft | 336 kts | 10° |
| 2026-04-25 02:37 | 7.57850 | -72.73628 | 15416 ft | 332 kts | 11° |
| 2026-04-25 02:37 | 7.60099 | -72.73162 | 15024 ft | 328 kts | 11° |
| 2026-04-25 02:37 | 7.62325 | -72.72696 | 14400 ft | 325 kts | 11° |
| 2026-04-25 02:38 | 7.64530 | -72.72234 | 13800 ft | 322 kts | 11° |
| 2026-04-25 02:38 | 7.66712 | -72.71778 | 13147 ft | 319 kts | 11° |
| 2026-04-25 02:38 | 7.68831 | -72.71337 | 12918 ft | 301 kts | 11° |
| 2026-04-25 02:38 | 7.70816 | -72.70924 | 12790 ft | 282 kts | 11° |
| 2026-04-25 02:39 | 7.72674 | -72.70536 | 12656 ft | 264 kts | 11° |
| 2026-04-25 02:39 | 7.74434 | -72.70170 | 12389 ft | 254 kts | 11° |
| 2026-04-25 02:39 | 7.76143 | -72.69815 | 12025 ft | 249 kts | 11° |
| 2026-04-25 02:39 | 7.77856 | -72.69458 | 11614 ft | 254 kts | 11° |
| 2026-04-25 02:40 | 7.79590 | -72.69097 | 11189 ft | 254 kts | 11° |
| 2026-04-25 02:40 | 7.81325 | -72.68736 | 10764 ft | 254 kts | 11° |
| 2026-04-25 02:40 | 7.83050 | -72.68380 | 10330 ft | 252 kts | 11° |
| 2026-04-25 02:40 | 7.84736 | -72.68031 | 9923 ft | 250 kts | 11° |
| 2026-04-25 02:41 | 7.86437 | -72.67676 | 9471 ft | 248 kts | 11° |
| 2026-04-25 02:41 | 7.88122 | -72.67324 | 9016 ft | 247 kts | 11° |
| 2026-04-25 02:41 | 7.89798 | -72.66977 | 8571 ft | 245 kts | 11° |
| 2026-04-25 02:41 | 7.91454 | -72.66638 | 8189 ft | 241 kts | 11° |
| 2026-04-25 02:42 | 7.93086 | -72.66302 | 7801 ft | 238 kts | 11° |
| 2026-04-25 02:42 | 7.94697 | -72.65969 | 7421 ft | 234 kts | 11° |
| 2026-04-25 02:42 | 7.96268 | -72.65643 | 6947 ft | 228 kts | 12° |
| 2026-04-25 02:42 | 7.97804 | -72.65323 | 6501 ft | 222 kts | 12° |
| 2026-04-25 02:43 | 7.99251 | -72.65020 | 6195 ft | 206 kts | 12° |
| 2026-04-25 02:43 | 8.00558 | -72.64503 | 5797 ft | 201 kts | 36° |
| 2026-04-25 02:43 | 8.01466 | -72.63463 | 5413 ft | 198 kts | 63° |
| 2026-04-25 02:43 | 8.01796 | -72.62141 | 5025 ft | 195 kts | 90° |
| 2026-04-25 02:44 | 8.01601 | -72.60798 | 4644 ft | 193 kts | 101° |
| 2026-04-25 02:44 | 8.01350 | -72.59476 | 4243 ft | 191 kts | 101° |
| 2026-04-25 02:44 | 8.01105 | -72.58161 | 3875 ft | 190 kts | 101° |
| 2026-04-25 02:44 | 8.00865 | -72.56866 | 3566 ft | 185 kts | 101° |
| 2026-04-25 02:45 | 8.00631 | -72.55605 | 3302 ft | 180 kts | 101° |
| 2026-04-25 02:45 | 8.00402 | -72.54382 | 3043 ft | 175 kts | 101° |
| 2026-04-25 02:45 | 8.00179 | -72.53188 | 2797 ft | 169 kts | 101° |
| 2026-04-25 02:45 | 7.99969 | -72.52061 | 2591 ft | 161 kts | 101° |
| 2026-04-25 02:46 | 7.99622 | -72.51039 | 2500 ft | 151 kts | 122° |
| 2026-04-25 02:46 | 7.98919 | -72.50276 | 2213 ft | 147 kts | 147° |
| 2026-04-25 02:46 | 7.97999 | -72.49873 | 1980 ft | 144 kts | 169° |
| 2026-04-25 02:46 | 7.97013 | -72.49857 | 1786 ft | 141 kts | 192° |
| 2026-04-25 02:47 | 7.96071 | -72.50139 | 1626 ft | 144 kts | 195° |
| 2026-04-25 02:47 | 7.95119 | -72.50409 | 1410 ft | 141 kts | 198° |
| 2026-04-25 02:47 | 7.94187 | -72.50702 | 1202 ft | 140 kts | 200° |
| 2026-04-25 02:47 | 7.93266 | -72.50994 | 1025 ft | 137 kts | 199° |
| 2026-04-25 02:48 | 7.92523 | -72.51227 | 1036 ft | 74 kts | 197° |
| 2026-04-25 02:48 | 7.92282 | -72.51304 | 1051 ft | 19 kts | 197° |
| 2026-04-25 02:48 | 7.92158 | -72.51344 | 1053 ft | 19 kts | 198° |
| 2026-04-25 02:48 | 7.92033 | -72.51383 | 1055 ft | 19 kts | 197° |
| 2026-04-25 02:49 | 7.91908 | -72.51423 | 1057 ft | 19 kts | 197° |
| 2026-04-25 02:49 | 7.91804 | -72.51432 | 1058 ft | 6 kts | 216° |
| 2026-04-25 02:49 | 7.91819 | -72.51448 | 1057 ft | 6 kts | 337° |
| 2026-04-25 02:49 | 7.91909 | -72.51423 | 1057 ft | 20 kts | 18° |
| 2026-04-25 02:50 | 7.92088 | -72.51365 | 1055 ft | 33 kts | 18° |
| 2026-04-25 02:50 | 7.92336 | -72.51288 | 1048 ft | 39 kts | 17° |
| 2026-04-25 02:50 | 7.92605 | -72.51203 | 1033 ft | 40 kts | 17° |
| 2026-04-25 02:50 | 7.92747 | -72.51096 | 1031 ft | 25 kts | 63° |
| 2026-04-25 02:51 | 7.92772 | -72.51045 | 1032 ft | 5 kts | 69° |
| 2026-04-25 02:51 | 7.92785 | -72.50995 | 1032 ft | 12 kts | 73° |
| 2026-04-25 02:51 | 7.92839 | -72.50912 | 1032 ft | 16 kts | 36° |
| 2026-04-25 02:51 | 7.92871 | -72.50856 | 1032 ft | 7 kts | 122° |
| 2026-04-25 02:52 | 7.92848 | -72.50855 | 1032 ft | 1 kts | 209° |
| 2026-04-25 02:52 | 7.92822 | -72.50867 | 1032 ft | 6 kts | 207° |
| 2026-04-25 02:52 | 7.92812 | -72.50872 | 1032 ft | 0 kts | 207° |